createdAt,value
2023-08-28T00:02:18.214Z,14.68
2023-08-28T00:04:47.066Z,14.58
2023-08-28T00:07:14.568Z,14.28
2023-08-28T00:09:43.742Z,14.38
2023-08-28T00:12:16.503Z,14.48
2023-08-28T00:14:43.132Z,14.54
2023-08-28T00:17:09.738Z,14.46
2023-08-28T00:19:38.535Z,14.56
2023-08-28T00:22:05.190Z,14.57
2023-08-28T00:24:36.436Z,14.43
2023-08-28T00:27:05.571Z,14.54
2023-08-28T00:29:35.350Z,14.57
2023-08-28T00:32:02.269Z,14.47
2023-08-28T00:34:31.244Z,14.35
2023-08-28T00:37:00.053Z,14.48
2023-08-28T00:39:26.678Z,14.49
2023-08-28T00:41:56.668Z,14.49
2023-08-28T00:44:25.595Z,14.51
2023-08-28T00:46:54.888Z,14.52
2023-08-28T00:49:23.972Z,14.50
2023-08-28T00:51:51.110Z,14.46
2023-08-28T00:54:20.411Z,14.48
2023-08-28T00:56:51.210Z,14.52
2023-08-28T00:59:21.756Z,14.50
2023-08-28T01:01:48.532Z,14.53
2023-08-28T01:04:18.015Z,14.52
2023-08-28T01:07:02.984Z,14.41
2023-08-28T01:10:01.061Z,14.48
2023-08-28T01:12:42.494Z,14.54
2023-08-28T01:15:22.046Z,14.47
2023-08-28T01:17:56.782Z,14.42
2023-08-28T01:20:25.299Z,14.43
2023-08-28T01:22:57.965Z,14.48
2023-08-28T01:25:30.969Z,14.53
2023-08-28T01:27:59.564Z,14.48
2023-08-28T01:30:27.156Z,14.41
2023-08-28T01:32:53.851Z,14.45
2023-08-28T01:35:25.496Z,14.40
2023-08-28T01:38:12.464Z,14.45
2023-08-28T01:40:55.612Z,14.28
2023-08-28T01:43:28.867Z,14.34
2023-08-28T01:45:59.317Z,14.09
2023-08-28T01:48:31.716Z,14.19
2023-08-28T01:50:58.287Z,14.28
2023-08-28T01:53:27.011Z,14.14
2023-08-28T01:56:08.792Z,14.15
2023-08-28T01:58:38.140Z,14.12
2023-08-28T02:01:07.215Z,14.18
2023-08-28T02:03:34.205Z,14.17
2023-08-28T02:06:03.418Z,14.06
2023-08-28T02:08:30.020Z,14.18
2023-08-28T02:10:58.929Z,14.17
2023-08-28T02:13:28.624Z,14.20
2023-08-28T02:15:57.719Z,14.25
2023-08-28T02:18:26.800Z,14.27
2023-08-28T02:20:54.060Z,14.23
2023-08-28T02:23:23.320Z,14.27
2023-08-28T02:25:50.269Z,14.28
2023-08-28T02:28:19.478Z,14.24
2023-08-28T02:30:46.887Z,14.22
2023-08-28T02:33:16.136Z,14.17
2023-08-28T02:35:47.492Z,14.20
2023-08-28T02:38:17.075Z,14.15
2023-08-28T02:40:43.805Z,14.13
2023-08-28T02:43:10.735Z,14.18
2023-08-28T02:45:42.632Z,14.25
2023-08-28T02:48:15.660Z,14.20
2023-08-28T02:50:42.389Z,14.19
2023-08-28T02:53:08.948Z,14.21
2023-08-28T02:55:42.170Z,14.25
2023-08-28T02:58:12.109Z,14.28
2023-08-28T03:00:44.180Z,14.21
2023-08-28T03:03:13.530Z,14.26
2023-08-28T03:05:47.523Z,14.30
2023-08-28T03:08:14.324Z,14.32
2023-08-28T03:10:43.173Z,14.34
2023-08-28T03:13:12.793Z,14.26
2023-08-28T03:15:43.548Z,14.18
2023-08-28T03:18:12.405Z,14.18
2023-08-28T03:20:39.014Z,14.15
2023-08-28T03:23:10.664Z,14.23
2023-08-28T03:25:42.445Z,14.24
2023-08-28T03:28:13.780Z,14.20
2023-08-28T03:30:40.381Z,14.16
2023-08-28T03:33:09.257Z,14.12
2023-08-28T03:35:38.054Z,14.23
2023-08-28T03:38:04.948Z,14.12
2023-08-28T03:40:33.738Z,14.05
2023-08-28T03:43:03.469Z,14.07
2023-08-28T03:45:32.615Z,14.07
2023-08-28T03:48:02.723Z,14.11
2023-08-28T03:50:34.378Z,14.15
2023-08-28T03:53:02.489Z,14.20
2023-08-28T03:55:30.599Z,14.24
2023-08-28T03:58:03.499Z,14.31
2023-08-28T04:00:34.041Z,14.03
2023-08-28T04:03:00.826Z,13.85
2023-08-28T04:05:34.213Z,14.03
2023-08-28T04:08:01.388Z,14.02
2023-08-28T04:10:33.180Z,13.98
2023-08-28T04:13:02.126Z,14.02
2023-08-28T04:15:29.391Z,13.79
2023-08-28T04:17:57.742Z,13.99
2023-08-28T04:20:24.356Z,13.93
2023-08-28T04:22:50.977Z,13.84
2023-08-28T04:25:20.797Z,13.84
2023-08-28T04:27:47.425Z,13.72
2023-08-28T04:30:14.687Z,13.58
2023-08-28T04:32:41.424Z,13.70
2023-08-28T04:35:08.547Z,13.64
2023-08-28T04:37:35.539Z,13.66
2023-08-28T04:40:02.300Z,13.54
2023-08-28T04:42:28.924Z,13.51
2023-08-28T04:44:57.849Z,13.56
2023-08-28T04:47:26.815Z,13.57
2023-08-28T04:49:55.763Z,13.47
2023-08-28T04:52:23.404Z,13.46
2023-08-28T04:54:50.068Z,13.56
2023-08-28T04:57:16.722Z,13.51
2023-08-28T04:59:43.382Z,13.54
2023-08-28T05:02:14.698Z,13.47
2023-08-28T05:04:41.313Z,13.31
2023-08-28T05:07:08.907Z,13.19
2023-08-28T05:09:35.687Z,13.17
2023-08-28T05:12:04.665Z,13.06
2023-08-28T05:14:33.503Z,13.13
2023-08-28T05:17:02.395Z,13.18
2023-08-28T05:19:28.957Z,13.27
2023-08-28T05:21:55.556Z,13.05
2023-08-28T05:24:22.122Z,13.16
2023-08-28T05:26:48.720Z,13.07
2023-08-28T05:29:15.429Z,13.17
2023-08-28T05:31:42.063Z,13.20
2023-08-28T05:34:10.098Z,13.16
2023-08-28T05:36:39.308Z,13.04
2023-08-28T05:39:06.185Z,13.13
2023-08-28T05:41:32.848Z,13.00
2023-08-28T05:43:59.578Z,12.96
2023-08-28T05:46:28.780Z,13.11
2023-08-28T05:48:57.711Z,13.15
2023-08-28T05:51:26.830Z,13.21
2023-08-28T05:53:55.508Z,13.05
2023-08-28T05:56:22.147Z,13.16
2023-08-28T05:58:51.791Z,13.19
2023-08-28T06:01:21.000Z,13.27
2023-08-28T06:03:52.125Z,13.19
2023-08-28T06:06:18.877Z,13.14
2023-08-28T06:08:48.716Z,13.26
2023-08-28T06:11:15.304Z,13.40
2023-08-28T06:13:42.020Z,13.38
2023-08-28T06:16:10.696Z,13.25
2023-08-28T06:18:39.666Z,13.42
2023-08-28T06:21:06.281Z,13.49
2023-08-28T06:23:32.935Z,13.38
2023-08-28T06:25:59.572Z,13.28
2023-08-28T06:28:26.230Z,13.05
2023-08-28T06:30:52.959Z,13.25
2023-08-28T06:33:21.798Z,13.42
2023-08-28T06:35:48.947Z,13.49
2023-08-28T06:38:17.854Z,13.54
2023-08-28T06:40:52.249Z,13.53
2023-08-28T06:43:19.070Z,13.38
2023-08-28T06:45:48.747Z,13.37
2023-08-28T06:48:17.652Z,13.38
2023-08-28T06:50:44.315Z,13.54
2023-08-28T06:53:10.968Z,13.52
2023-08-28T06:55:39.903Z,13.50
2023-08-28T06:58:06.553Z,13.58
2023-08-28T07:00:37.934Z,13.49
2023-08-28T07:03:07.441Z,13.42
2023-08-28T07:05:34.489Z,13.51
2023-08-28T07:08:04.668Z,13.73
2023-08-28T07:10:31.467Z,13.40
2023-08-28T07:13:00.507Z,13.54
2023-08-28T07:15:29.525Z,13.65
2023-08-28T07:17:58.973Z,13.73
2023-08-28T07:20:25.675Z,13.82
2023-08-28T07:22:54.882Z,13.93
2023-08-28T07:25:23.080Z,13.89
2023-08-28T07:27:53.213Z,13.98
2023-08-28T07:30:20.079Z,13.94
2023-08-28T07:32:47.084Z,13.86
2023-08-28T07:35:14.511Z,13.87
2023-08-28T07:37:43.564Z,13.94
2023-08-28T07:40:12.984Z,13.78
2023-08-28T07:42:41.894Z,13.84
2023-08-28T07:45:11.660Z,13.60
2023-08-28T07:47:39.607Z,13.86
2023-08-28T07:50:08.735Z,13.86
2023-08-28T07:52:35.359Z,14.05
2023-08-28T07:55:07.711Z,14.08
2023-08-28T07:57:37.491Z,13.69
2023-08-28T08:00:08.892Z,13.57
2023-08-28T08:02:36.002Z,13.65
2023-08-28T08:05:05.626Z,13.84
2023-08-28T08:07:35.565Z,13.98
2023-08-28T08:10:05.002Z,14.00
2023-08-28T08:12:31.631Z,14.07
2023-08-28T08:14:58.213Z,14.20
2023-08-28T08:17:24.828Z,14.39
2023-08-28T08:19:51.480Z,14.35
2023-08-28T08:22:20.623Z,14.25
2023-08-28T08:24:49.478Z,14.36
2023-08-28T08:27:16.791Z,14.43
2023-08-28T08:29:50.138Z,14.30
2023-08-28T08:32:17.298Z,14.39
2023-08-28T08:34:49.180Z,14.67
2023-08-28T08:37:18.235Z,14.56
2023-08-28T08:39:45.473Z,14.22
2023-08-28T08:42:14.545Z,14.16
2023-08-28T08:44:41.181Z,14.45
2023-08-28T08:47:10.762Z,14.33
2023-08-28T08:49:43.169Z,14.27
2023-08-28T08:52:13.938Z,14.37
2023-08-28T08:54:45.525Z,14.53
2023-08-28T08:57:32.146Z,14.55
2023-08-28T08:59:59.136Z,14.39
2023-08-28T09:02:29.056Z,14.34
2023-08-28T09:04:56.199Z,14.58
2023-08-28T09:07:24.428Z,14.74
2023-08-28T09:09:51.606Z,14.84
2023-08-28T09:12:23.249Z,14.83
2023-08-28T09:14:49.901Z,14.82
2023-08-28T09:17:21.614Z,14.68
2023-08-28T09:19:48.973Z,14.53
2023-08-28T09:22:15.677Z,14.83
2023-08-28T09:24:44.851Z,14.87
2023-08-28T09:27:14.379Z,14.74
2023-08-28T09:29:41.175Z,14.68
2023-08-28T09:32:10.334Z,15.02
2023-08-28T09:34:42.791Z,15.22
2023-08-28T09:37:14.915Z,15.28
2023-08-28T09:39:55.699Z,15.35
2023-08-28T09:42:25.754Z,15.47
2023-08-28T09:44:52.601Z,15.54
2023-08-28T09:47:29.100Z,15.39
2023-08-28T09:49:58.215Z,15.17
2023-08-28T09:52:27.882Z,15.20
2023-08-28T09:55:08.588Z,15.55
2023-08-28T09:57:35.392Z,15.57
2023-08-28T10:00:03.173Z,15.72
2023-08-28T10:02:34.924Z,16.03
2023-08-28T10:05:06.536Z,16.48
2023-08-28T10:07:36.165Z,15.97
2023-08-28T10:10:11.700Z,15.71
2023-08-28T10:12:41.787Z,15.57
2023-08-28T10:15:12.992Z,15.73
2023-08-28T10:17:41.571Z,15.83
2023-08-28T10:20:11.736Z,15.61
2023-08-28T10:22:48.676Z,15.93
2023-08-28T10:25:17.849Z,15.49
2023-08-28T10:27:47.435Z,15.52
2023-08-28T10:30:17.788Z,15.85
2023-08-28T10:32:49.182Z,15.63
2023-08-28T10:35:17.957Z,15.51
2023-08-28T10:37:48.224Z,15.33
2023-08-28T10:40:19.746Z,15.64
2023-08-28T10:42:50.764Z,15.38
2023-08-28T10:45:19.593Z,15.55
2023-08-28T10:47:54.077Z,15.65
2023-08-28T10:50:20.926Z,15.71
2023-08-28T10:52:49.934Z,15.18
2023-08-28T10:55:19.798Z,15.46
2023-08-28T10:57:56.395Z,15.32
2023-08-28T11:00:24.232Z,14.80
2023-08-28T11:03:19.790Z,14.83
2023-08-28T11:05:46.604Z,14.68
2023-08-28T11:08:16.163Z,14.66
2023-08-28T11:10:49.143Z,14.67
2023-08-28T11:13:24.130Z,14.91
2023-08-28T11:16:03.549Z,14.60
2023-08-28T11:18:31.561Z,14.54
2023-08-28T11:21:08.325Z,14.39
2023-08-28T11:23:40.731Z,14.43
2023-08-28T11:26:16.650Z,14.29
2023-08-28T11:28:48.261Z,14.14
2023-08-28T11:31:16.079Z,14.21
2023-08-28T11:33:45.408Z,14.04
2023-08-28T11:36:21.048Z,14.04
2023-08-28T11:38:51.114Z,14.21
2023-08-28T11:41:23.766Z,14.31
2023-08-28T11:43:53.313Z,14.30
2023-08-28T11:46:25.930Z,14.09
2023-08-28T11:48:54.812Z,14.40
2023-08-28T11:51:27.238Z,14.60
2023-08-28T11:53:53.856Z,14.09
2023-08-28T11:56:22.555Z,14.47
2023-08-28T11:58:54.034Z,14.39
2023-08-28T12:01:21.260Z,14.26
2023-08-28T12:03:52.131Z,14.12
2023-08-28T12:06:21.373Z,13.98
2023-08-28T12:08:48.487Z,13.90
2023-08-28T12:11:19.387Z,13.85
2023-08-28T12:13:46.033Z,14.25
2023-08-28T12:16:16.682Z,14.34
2023-08-28T12:18:46.760Z,14.57
2023-08-28T12:21:16.300Z,14.60
2023-08-28T12:23:55.247Z,14.66
2023-08-28T12:26:26.030Z,14.89
2023-08-28T12:28:59.468Z,14.63
2023-08-28T12:31:36.071Z,14.78
2023-08-28T12:34:12.733Z,14.67
2023-08-28T12:36:40.397Z,14.73
2023-08-28T12:39:14.215Z,15.12
2023-08-28T12:41:51.289Z,15.27
2023-08-28T12:44:23.048Z,15.20
2023-08-28T12:46:52.416Z,15.09
2023-08-28T12:49:22.246Z,15.65
2023-08-28T12:51:52.179Z,15.81
2023-08-28T12:54:21.257Z,15.99
2023-08-28T12:56:53.833Z,16.02
2023-08-28T12:59:26.812Z,16.15
2023-08-28T13:01:54.754Z,15.77
2023-08-28T13:04:23.710Z,15.67
2023-08-28T13:06:56.175Z,16.05
2023-08-28T13:09:24.452Z,16.14
2023-08-28T13:11:51.692Z,15.95
2023-08-28T13:14:18.720Z,15.68
2023-08-28T13:16:45.462Z,15.42
2023-08-28T13:19:14.295Z,15.36
2023-08-28T13:21:44.293Z,15.65
2023-08-28T13:24:13.321Z,15.07
2023-08-28T13:26:42.055Z,14.89
2023-08-28T13:29:08.641Z,14.97
2023-08-28T13:31:38.310Z,14.83
2023-08-28T13:34:05.072Z,15.12
2023-08-28T13:36:34.073Z,15.10
2023-08-28T13:39:05.265Z,14.88
2023-08-28T13:41:34.168Z,15.03
2023-08-28T13:44:00.905Z,15.00
2023-08-28T13:46:27.991Z,14.89
2023-08-28T13:48:54.606Z,14.96
2023-08-28T13:51:24.166Z,15.12
2023-08-28T13:53:53.296Z,14.90
2023-08-28T13:56:22.517Z,14.80
2023-08-28T13:58:49.240Z,15.16
2023-08-28T14:01:18.072Z,15.35
2023-08-28T14:03:44.681Z,15.58
2023-08-28T14:06:13.939Z,15.61
2023-08-28T14:08:40.540Z,15.28
2023-08-28T14:11:13.729Z,15.47
2023-08-28T14:13:40.924Z,15.62
2023-08-28T14:16:08.078Z,15.66
2023-08-28T14:18:37.512Z,15.84
2023-08-28T14:21:05.168Z,15.73
2023-08-28T14:23:33.008Z,15.66
2023-08-28T14:26:06.982Z,15.84
2023-08-28T14:28:36.190Z,14.99
2023-08-28T14:31:05.032Z,15.10
2023-08-28T14:33:31.863Z,15.40
2023-08-28T14:36:00.864Z,15.40
2023-08-28T14:38:32.638Z,15.35
2023-08-28T14:40:59.431Z,15.22
2023-08-28T14:43:28.419Z,14.97
2023-08-28T14:45:55.516Z,14.93
2023-08-28T14:48:22.253Z,15.10
2023-08-28T14:50:48.883Z,15.10
2023-08-28T14:53:17.726Z,15.00
2023-08-28T14:55:51.697Z,14.71
2023-08-28T14:58:20.662Z,14.88
2023-08-28T15:00:58.165Z,14.93
2023-08-28T15:03:25.928Z,14.78
2023-08-28T15:05:54.689Z,14.77
2023-08-28T15:08:24.046Z,14.84
2023-08-28T15:10:53.259Z,14.55
2023-08-28T15:13:20.005Z,14.39
2023-08-28T15:15:47.802Z,14.28
2023-08-28T15:18:14.615Z,14.28
2023-08-28T15:20:42.037Z,14.43
2023-08-28T15:23:11.233Z,14.48
2023-08-28T15:25:40.439Z,14.43
2023-08-28T15:28:11.969Z,14.47
2023-08-28T15:30:38.651Z,14.39
2023-08-28T15:33:06.104Z,14.46
2023-08-28T15:35:35.365Z,14.54
2023-08-28T15:38:04.213Z,14.43
2023-08-28T15:40:33.261Z,14.40
2023-08-28T15:42:59.818Z,14.27
2023-08-28T15:45:28.920Z,14.25
2023-08-28T15:47:55.532Z,14.12
2023-08-28T15:50:22.160Z,14.10
2023-08-28T15:52:48.755Z,14.12
2023-08-28T15:55:17.776Z,14.10
2023-08-28T15:57:44.500Z,13.89
2023-08-28T16:00:13.902Z,14.06
2023-08-28T16:02:40.877Z,14.14
2023-08-28T16:05:10.016Z,14.05
2023-08-28T16:07:36.581Z,13.98
2023-08-28T16:10:06.270Z,13.79
2023-08-28T16:12:33.086Z,13.79
2023-08-28T16:15:02.184Z,13.85
2023-08-28T16:17:28.808Z,13.82
2023-08-28T16:19:55.432Z,13.69
2023-08-28T16:22:24.131Z,13.76
2023-08-28T16:24:50.809Z,13.78
2023-08-28T16:27:19.928Z,13.81
2023-08-28T16:29:46.530Z,13.58
2023-08-28T16:32:17.728Z,13.69
2023-08-28T16:34:47.248Z,13.60
2023-08-28T16:37:19.166Z,13.42
2023-08-28T16:39:45.861Z,13.31
2023-08-28T16:42:14.850Z,13.39
2023-08-28T16:44:44.132Z,13.47
2023-08-28T16:47:10.732Z,13.29
2023-08-28T16:49:39.546Z,13.21
2023-08-28T16:52:06.429Z,13.32
2023-08-28T16:54:35.511Z,13.26
2023-08-28T16:57:04.339Z,13.29
2023-08-28T16:59:35.805Z,13.31
2023-08-28T17:02:02.448Z,13.20
2023-08-28T17:04:34.053Z,13.23
2023-08-28T17:07:01.330Z,13.32
2023-08-28T17:09:29.552Z,13.22
2023-08-28T17:12:00.646Z,13.12
2023-08-28T17:14:29.648Z,13.21
2023-08-28T17:16:58.187Z,13.25
2023-08-28T17:19:27.668Z,13.26
2023-08-28T17:21:54.335Z,13.32
2023-08-28T17:24:24.375Z,13.22
2023-08-28T17:26:50.982Z,13.26
2023-08-28T17:29:17.720Z,13.27
2023-08-28T17:31:44.556Z,13.20
2023-08-28T17:34:11.228Z,13.29
2023-08-28T17:36:42.676Z,13.29
2023-08-28T17:39:25.112Z,13.34
2023-08-28T17:41:53.894Z,13.31
2023-08-28T17:44:20.546Z,13.26
2023-08-28T17:46:47.223Z,13.33
2023-08-28T17:49:14.171Z,13.18
2023-08-28T17:51:44.079Z,12.99
2023-08-28T17:54:10.796Z,13.09
2023-08-28T17:56:37.672Z,12.92
2023-08-28T17:59:04.870Z,12.85
2023-08-28T18:01:31.988Z,12.60
2023-08-28T18:03:59.053Z,12.65
2023-08-28T18:06:25.752Z,12.73
2023-08-28T18:08:55.416Z,12.69
2023-08-28T18:11:22.068Z,12.75
2023-08-28T18:13:51.078Z,12.54
2023-08-28T18:16:18.898Z,12.70
2023-08-28T18:18:49.117Z,12.75
2023-08-28T18:21:18.520Z,12.71
2023-08-28T18:23:47.930Z,12.73
2023-08-28T18:26:14.589Z,12.67
2023-08-28T18:28:41.188Z,12.40
2023-08-28T18:31:07.868Z,12.60
2023-08-28T18:33:34.484Z,12.66
2023-08-28T18:36:05.066Z,12.67
2023-08-28T18:38:31.861Z,12.75
2023-08-28T18:41:03.885Z,12.75
2023-08-28T18:43:30.491Z,12.81
2023-08-28T18:46:00.106Z,12.86
2023-08-28T18:48:29.011Z,12.90
2023-08-28T18:50:55.656Z,12.76
2023-08-28T18:53:24.414Z,12.83
2023-08-28T18:55:55.600Z,12.83
2023-08-28T18:58:23.022Z,12.88
2023-08-28T19:00:52.162Z,12.93
2023-08-28T19:03:18.844Z,12.86
2023-08-28T19:05:46.008Z,12.79
2023-08-28T19:08:14.855Z,12.74
2023-08-28T19:10:43.986Z,12.73
2023-08-28T19:13:13.528Z,12.55
2023-08-28T19:15:40.179Z,12.48
2023-08-28T19:18:07.266Z,12.46
2023-08-28T19:20:59.703Z,12.49
2023-08-28T19:23:28.316Z,12.26
2023-08-28T19:25:54.930Z,12.45
2023-08-28T19:28:26.370Z,12.59
2023-08-28T19:30:53.166Z,12.55
2023-08-28T19:33:22.903Z,12.54
2023-08-28T19:35:50.660Z,12.62
2023-08-28T19:38:18.724Z,12.59
2023-08-28T19:40:48.094Z,12.60
2023-08-28T19:43:22.054Z,12.73
2023-08-28T19:45:48.731Z,12.75
2023-08-28T19:48:15.532Z,12.77
2023-08-28T19:50:42.146Z,12.75
2023-08-28T19:53:08.811Z,12.70
2023-08-28T19:55:37.616Z,12.71
2023-08-28T19:58:06.922Z,12.70
2023-08-28T20:00:33.911Z,12.77
2023-08-28T20:03:03.267Z,12.79
2023-08-28T20:05:32.745Z,12.72
2023-08-28T20:07:59.425Z,12.75
2023-08-28T20:10:26.093Z,12.75
2023-08-28T20:12:54.485Z,12.76
2023-08-28T20:15:23.337Z,12.77
2023-08-28T20:17:51.883Z,12.74
2023-08-28T20:20:21.088Z,12.71
2023-08-28T20:22:48.120Z,12.66
2023-08-28T20:25:17.121Z,12.74
2023-08-28T20:27:46.100Z,12.72
2023-08-28T20:30:15.560Z,12.40
2023-08-28T20:32:44.644Z,12.54
2023-08-28T20:35:11.996Z,12.52
2023-08-28T20:37:38.736Z,12.37
2023-08-28T20:40:06.070Z,12.47
2023-08-28T20:42:36.552Z,12.57
2023-08-28T20:45:06.066Z,12.61
2023-08-28T20:47:37.385Z,12.57
2023-08-28T20:50:08.511Z,12.42
2023-08-28T20:52:41.102Z,12.22
2023-08-28T20:55:08.637Z,12.40
2023-08-28T20:57:35.543Z,12.43
2023-08-28T21:00:02.236Z,12.48
2023-08-28T21:02:31.559Z,12.50
2023-08-28T21:05:01.156Z,12.39
2023-08-28T21:07:30.199Z,12.36
2023-08-28T21:09:56.840Z,12.40
2023-08-28T21:12:23.828Z,12.41
2023-08-28T21:14:53.064Z,12.40
2023-08-28T21:17:20.111Z,12.39
2023-08-28T21:19:49.062Z,12.40
2023-08-28T21:22:18.462Z,12.26
2023-08-28T21:24:47.573Z,12.32
2023-08-28T21:27:15.266Z,12.26
2023-08-28T21:29:44.292Z,12.06
2023-08-28T21:32:10.979Z,12.01
2023-08-28T21:34:39.813Z,12.08
2023-08-28T21:37:08.642Z,12.04
2023-08-28T21:39:38.086Z,12.01
2023-08-28T21:42:07.223Z,12.11
2023-08-28T21:44:37.014Z,12.16
2023-08-28T21:47:05.847Z,11.82
2023-08-28T21:49:32.418Z,11.73
2023-08-28T21:51:59.137Z,11.82
2023-08-28T21:54:25.780Z,12.00
2023-08-28T21:56:55.907Z,11.89
2023-08-28T21:59:25.280Z,11.87
2023-08-28T22:01:54.443Z,11.86
2023-08-28T22:04:21.101Z,11.76
2023-08-28T22:06:48.055Z,11.66
2023-08-28T22:09:14.665Z,11.75
2023-08-28T22:11:46.149Z,11.76
2023-08-28T22:14:15.295Z,11.79
2023-08-28T22:16:44.415Z,11.62
2023-08-28T22:19:11.435Z,11.75
2023-08-28T22:21:42.683Z,11.87
2023-08-28T22:24:09.564Z,11.85
2023-08-28T22:26:38.761Z,11.91
2023-08-28T22:29:07.665Z,11.88
2023-08-28T22:31:36.522Z,11.90
2023-08-28T22:34:08.765Z,11.95
2023-08-28T22:36:40.313Z,11.93
2023-08-28T22:39:06.928Z,11.74
2023-08-28T22:41:36.768Z,11.82
2023-08-28T22:44:05.933Z,11.62
2023-08-28T22:46:35.117Z,11.70
2023-08-28T22:49:06.471Z,11.74
2023-08-28T22:51:33.152Z,11.65
2023-08-28T22:53:59.858Z,11.59
2023-08-28T22:56:26.919Z,11.55
2023-08-28T22:58:55.890Z,11.63
2023-08-28T23:01:22.561Z,11.61
2023-08-28T23:03:49.321Z,11.62
2023-08-28T23:06:16.526Z,11.72
2023-08-28T23:08:43.200Z,11.71
2023-08-28T23:11:12.233Z,11.81
2023-08-28T23:13:38.783Z,11.78
2023-08-28T23:16:10.307Z,11.66
2023-08-28T23:18:37.350Z,11.59
2023-08-28T23:21:06.772Z,11.51
2023-08-28T23:23:34.082Z,11.41
2023-08-28T23:26:01.025Z,11.37
2023-08-28T23:28:27.802Z,11.46
2023-08-28T23:30:54.913Z,11.49
2023-08-28T23:33:24.177Z,11.57
2023-08-28T23:35:58.629Z,11.62
2023-08-28T23:38:25.522Z,11.65
2023-08-28T23:40:53.766Z,11.64
2023-08-28T23:43:22.820Z,11.68
2023-08-28T23:45:49.497Z,11.69
2023-08-28T23:48:18.536Z,11.68
2023-08-28T23:50:47.670Z,11.70
2023-08-28T23:53:16.968Z,11.65
2023-08-28T23:55:45.901Z,11.61
2023-08-28T23:58:17.230Z,11.47
